Time;durP1;ratioP1;P1;durP2;ratioP2;P2;SDS_P1;SDS_P2;PMS_P1;PMS_P2;Temp;Humidity;BMP_temperature;BMP_pressure;BME280_temperature;BME280_humidity;BME280_pressure;Samples;Min_cycle;Max_cycle;Signal;HPM_P1;HPM_P2
2023/03/03 00:01:31;;;;;;;78.03;30.10;;;1.10;90.40;;;;;;5070561;28;21026;-59
2023/03/03 00:03:59;;;;;;;95.87;32.73;;;1.10;90.40;;;;;;5067002;28;20600;-59
2023/03/03 00:06:26;;;;;;;82.57;31.20;;;;;;;;;;5064512;28;20533;-59
2023/03/03 00:08:54;;;;;;;108.33;32.60;;;1.00;90.40;;;;;;5051210;28;20494;-59
2023/03/03 00:11:21;;;;;;;69.60;27.90;;;1.00;91.10;;;;;;5057952;28;20483;-59
2023/03/03 00:13:48;;;;;;;96.27;33.97;;;;;;;;;;5068834;28;20471;-58
2023/03/03 00:16:21;;;;;;;78.20;31.03;;;0.70;90.20;;;;;;5061605;28;20945;-58
2023/03/03 00:18:48;;;;;;;68.93;26.87;;;0.70;90.20;;;;;;5077273;28;21217;-59
2023/03/03 00:21:27;;;;;;;72.57;29.47;;;0.80;90.20;;;;;;5071456;28;20484;-59
2023/03/03 00:24:20;;;;;;;77.97;30.73;;;0.70;90.20;;;;;;5047816;28;20987;-60
2023/03/03 00:26:48;;;;;;;83.90;27.70;;;0.70;90.60;;;;;;5054298;28;20478;-59
2023/03/03 00:29:29;;;;;;;74.53;26.73;;;0.80;90.60;;;;;;5054253;28;20485;-58
2023/03/03 00:32:12;;;;;;;112.43;32.43;;;0.80;90.30;;;;;;5068382;28;20482;-59
2023/03/03 00:34:40;;;;;;;70.70;25.13;;;0.90;90.20;;;;;;5058301;28;20790;-59
2023/03/03 00:37:20;;;;;;;72.87;27.43;;;;;;;;;;5068400;28;20480;-59
2023/03/03 00:39:48;;;;;;;96.03;29.70;;;0.20;88.90;;;;;;5068805;28;20474;-59
2023/03/03 00:42:16;;;;;;;90.50;29.30;;;0.80;89.30;;;;;;5070136;28;21126;-59
2023/03/03 00:44:43;;;;;;;82.80;28.23;;;0.80;89.80;;;;;;5060239;28;20711;-59
2023/03/03 00:47:24;;;;;;;89.80;26.00;;;;;;;;;;5080178;28;20482;-59
2023/03/03 00:49:51;;;;;;;110.50;33.53;;;0.50;90.40;;;;;;5053892;28;20521;-59
2023/03/03 00:52:20;;;;;;;76.17;26.50;;;0.40;90.80;;;;;;5067548;27;21079;-59
2023/03/03 00:54:48;;;;;;;80.53;30.00;;;0.30;90.80;;;;;;5069169;28;20800;-59
2023/03/03 00:57:15;;;;;;;90.10;29.07;;;;;;;;;;5060217;28;20821;-59
2023/03/03 00:59:41;;;;;;;73.63;27.40;;;0.40;90.20;;;;;;5066627;28;20547;-59
2023/03/03 01:02:08;;;;;;;80.87;27.57;;;0.40;90.00;;;;;;5072085;28;20494;-58
2023/03/03 01:04:35;;;;;;;75.13;27.33;;;0.50;89.60;;;;;;5064966;28;20485;-59
2023/03/03 01:07:02;;;;;;;103.33;29.17;;;0.50;89.30;;;;;;5058464;28;20484;-58
2023/03/03 01:09:28;;;;;;;87.13;27.80;;;0.50;90.00;;;;;;5074832;28;20490;-59
2023/03/03 01:11:57;;;;;;;94.63;30.63;;;0.50;90.10;;;;;;5071048;28;20462;-59
2023/03/03 01:14:24;;;;;;;79.60;27.67;;;0.50;89.90;;;;;;5048330;28;20490;-60
2023/03/03 01:16:50;;;;;;;85.73;31.60;;;0.60;89.80;;;;;;5077693;28;20900;-59
2023/03/03 01:19:17;;;;;;;74.87;26.77;;;0.60;89.70;;;;;;5063253;28;20724;-59
2023/03/03 01:21:44;;;;;;;93.80;29.50;;;0.60;89.30;;;;;;5071424;28;20499;-60
2023/03/03 01:24:11;;;;;;;66.93;28.80;;;;;;;;;;5065361;28;20506;-59
2023/03/03 01:26:38;;;;;;;89.83;29.80;;;;;;;;;;5059554;28;20978;-59
2023/03/03 01:29:06;;;;;;;88.27;27.70;;;0.50;89.60;;;;;;5074394;27;21003;-59
2023/03/03 01:31:33;;;;;;;66.43;28.93;;;0.40;89.40;;;;;;5067092;28;20478;-60
2023/03/03 01:34:00;;;;;;;91.77;31.23;;;;;;;;;;5074048;28;20493;-59
2023/03/03 01:36:29;;;;;;;75.00;27.83;;;0.40;90.00;;;;;;5066821;28;21461;-59
2023/03/03 01:38:56;;;;;;;112.90;34.63;;;0.40;90.00;;;;;;5073462;28;20490;-59
2023/03/03 01:41:22;;;;;;;91.97;30.60;;;0.40;89.60;;;;;;5061947;28;20489;-59
2023/03/03 01:43:50;;;;;;;100.70;32.27;;;0.50;89.00;;;;;;5058813;28;20494;-59
2023/03/03 01:46:40;;;;;;;78.27;28.80;;;0.30;88.90;;;;;;5070631;28;20494;-58
2023/03/03 01:49:12;;;;;;;77.50;31.27;;;0.10;89.30;;;;;;5047183;28;20488;-58
2023/03/03 01:51:46;;;;;;;85.67;30.33;;;0.10;89.40;;;;;;5072472;27;20568;-59
2023/03/03 01:54:16;;;;;;;88.03;29.40;;;;;;;;;;5065347;28;20637;-59
2023/03/03 01:56:44;;;;;;;78.63;28.80;;;;;;;;;;5054807;28;20555;-58
2023/03/03 01:59:14;;;;;;;79.57;30.30;;;;;;;;;;5067725;28;20480;-59
2023/03/03 02:01:42;;;;;;;90.57;26.67;;;-0.20;90.80;;;;;;5072425;28;20787;-58
2023/03/03 02:04:09;;;;;;;61.57;27.43;;;-0.40;91.20;;;;;;5062250;28;20482;-59
2023/03/03 02:06:41;;;;;;;87.27;30.47;;;-0.20;91.50;;;;;;5073199;28;20813;-59
2023/03/03 02:09:14;;;;;;;76.83;28.37;;;-0.10;91.00;;;;;;5066409;28;20470;-59
2023/03/03 02:11:44;;;;;;;76.20;28.17;;;0.00;90.50;;;;;;5064561;28;20826;-59
2023/03/03 02:14:11;;;;;;;79.10;27.00;;;;;;;;;;5065992;28;20482;-58
2023/03/03 02:16:38;;;;;;;83.10;29.97;;;0.10;89.80;;;;;;5065415;28;20492;-58
2023/03/03 02:19:09;;;;;;;77.97;29.20;;;;;;;;;;5065461;28;20768;-58
2023/03/03 02:21:36;;;;;;;77.13;26.10;;;0.00;89.40;;;;;;5058867;28;20470;-59
2023/03/03 02:24:06;;;;;;;88.37;30.00;;;;;;;;;;5065330;28;20551;-60
2023/03/03 02:26:37;;;;;;;83.13;27.70;;;0.00;88.90;;;;;;5067432;28;20491;-59
2023/03/03 02:29:04;;;;;;;79.27;29.10;;;;;;;;;;5056079;28;20881;-59
2023/03/03 02:31:31;;;;;;;74.37;24.80;;;0.00;89.70;;;;;;5064622;28;20509;-60
2023/03/03 02:33:58;;;;;;;91.50;30.20;;;0.00;89.70;;;;;;5077626;28;20494;-60
2023/03/03 02:36:27;;;;;;;84.63;28.07;;;-0.10;89.80;;;;;;5054709;28;20474;-60
2023/03/03 02:39:02;;;;;;;97.03;31.87;;;0.00;89.70;;;;;;5076989;28;20763;-60
2023/03/03 02:41:33;;;;;;;75.87;28.87;;;0.00;89.40;;;;;;5050162;28;20974;-59
2023/03/03 02:44:03;;;;;;;93.30;31.27;;;0.10;88.80;;;;;;5069104;28;21072;-59
2023/03/03 02:46:34;;;;;;;91.37;29.43;;;0.00;88.70;;;;;;5059684;28;21095;-60
2023/03/03 02:49:01;;;;;;;87.90;29.90;;;0.00;88.70;;;;;;5059366;28;20506;-59
2023/03/03 02:51:27;;;;;;;90.23;29.03;;;0.00;88.60;;;;;;5069983;28;20487;-59
2023/03/03 02:53:54;;;;;;;115.23;34.93;;;;;;;;;;5060068;28;20475;-59
2023/03/03 02:56:22;;;;;;;82.40;27.13;;;;;;;;;;5077314;28;20909;-59
2023/03/03 02:58:48;;;;;;;103.40;30.77;;;0.00;89.10;;;;;;5065777;28;21055;-59
2023/03/03 03:01:17;;;;;;;78.77;28.47;;;-0.10;89.30;;;;;;5062144;28;20867;-60
2023/03/03 03:03:43;;;;;;;94.80;29.60;;;0.00;89.30;;;;;;5065656;28;20486;-60
2023/03/03 03:06:11;;;;;;;75.00;27.50;;;;;;;;;;5074492;28;20669;-58
2023/03/03 03:08:38;;;;;;;72.20;27.67;;;;;;;;;;5076416;28;20908;-59
2023/03/03 03:11:05;;;;;;;81.27;25.40;;;0.00;87.90;;;;;;5066182;28;20550;-59
2023/03/03 03:13:33;;;;;;;86.00;30.07;;;0.00;87.70;;;;;;5077564;28;20574;-59
2023/03/03 03:16:00;;;;;;;104.57;32.70;;;;;;;;;;5062430;28;20493;-59
2023/03/03 03:18:28;;;;;;;76.33;28.80;;;-0.30;88.30;;;;;;5069255;28;20485;-60
2023/03/03 03:20:55;;;;;;;89.37;30.80;;;-0.30;88.10;;;;;;5073530;28;20486;-59
2023/03/03 03:23:22;;;;;;;94.20;30.60;;;-0.30;88.20;;;;;;5074641;28;20854;-59
2023/03/03 03:25:48;;;;;;;90.70;29.43;;;-0.30;88.40;;;;;;5072617;28;21136;-59
2023/03/03 03:28:17;;;;;;;91.40;29.03;;;-0.30;88.00;;;;;;5062653;28;20470;-59
2023/03/03 03:30:44;;;;;;;97.30;29.50;;;-0.30;88.10;;;;;;5083476;28;20547;-58
2023/03/03 03:33:11;;;;;;;102.43;33.13;;;-0.50;88.20;;;;;;5061596;28;20565;-59
2023/03/03 03:35:44;;;;;;;79.13;28.17;;;;;;;;;;5073159;28;20501;-59
2023/03/03 03:38:11;;;;;;;80.67;27.93;;;;;;;;;;5066618;28;20814;-59
2023/03/03 03:40:38;;;;;;;92.00;29.20;;;-0.80;90.00;;;;;;5068140;28;20675;-59
2023/03/03 03:43:04;;;;;;;94.63;32.00;;;-0.80;89.90;;;;;;5052050;28;20490;-59
2023/03/03 03:45:32;;;;;;;76.07;26.03;;;-0.80;89.70;;;;;;5074232;28;20524;-59
2023/03/03 03:47:58;;;;;;;75.10;27.40;;;-0.60;89.40;;;;;;5057158;28;20556;-58
2023/03/03 03:50:26;;;;;;;100.37;30.10;;;;;;;;;;5057665;28;21038;-59
2023/03/03 03:52:54;;;;;;;125.33;35.97;;;-0.60;89.10;;;;;;5056897;28;20565;-58
2023/03/03 03:55:21;;;;;;;79.30;29.60;;;-0.50;88.90;;;;;;5081709;28;20479;-59
2023/03/03 03:57:48;;;;;;;89.63;29.83;;;-0.50;88.80;;;;;;5071390;28;21043;-59
2023/03/03 04:00:16;;;;;;;89.87;27.63;;;-0.50;88.80;;;;;;5055602;28;20482;-59
2023/03/03 04:02:43;;;;;;;82.60;29.10;;;;;;;;;;5078056;28;20482;-59
2023/03/03 04:05:10;;;;;;;71.03;29.10;;;-0.70;88.40;;;;;;5057363;28;21022;-59
2023/03/03 04:07:37;;;;;;;62.13;24.73;;;-0.80;89.00;;;;;;5045945;28;20491;-58
2023/03/03 04:10:05;;;;;;;82.23;28.77;;;-0.80;88.60;;;;;;5078800;28;20855;-58
2023/03/03 04:12:37;;;;;;;91.33;31.20;;;-0.90;89.00;;;;;;5060169;28;20467;-58
2023/03/03 04:15:04;;;;;;;86.20;27.63;;;;;;;;;;5076403;28;20794;-59
2023/03/03 04:17:31;;;;;;;79.57;26.07;;;-0.90;89.60;;;;;;5067437;28;20516;-59
2023/03/03 04:19:57;;;;;;;122.47;34.63;;;-0.90;89.80;;;;;;5075142;28;20471;-59
2023/03/03 04:22:24;;;;;;;74.67;26.70;;;-1.00;90.10;;;;;;5065218;28;20574;-59
2023/03/03 04:24:51;;;;;;;112.87;33.00;;;-0.90;90.20;;;;;;5065694;28;21027;-59
2023/03/03 04:27:19;;;;;;;87.37;27.83;;;;;;;;;;5069133;28;20483;-59
2023/03/03 04:29:46;;;;;;;92.10;30.60;;;-4.10;88.30;;;;;;5063744;28;20482;-58
2023/03/03 04:32:12;;;;;;;104.57;30.10;;;-1.10;90.70;;;;;;5059009;28;20711;-58
2023/03/03 04:34:39;;;;;;;88.93;29.73;;;-1.10;90.30;;;;;;5070481;28;20512;-59
2023/03/03 04:37:06;;;;;;;76.27;24.20;;;-1.00;90.00;;;;;;5064252;28;20482;-59
2023/03/03 04:39:32;;;;;;;87.87;27.17;;;-1.00;89.70;;;;;;5068218;28;20475;-59
2023/03/03 04:41:59;;;;;;;96.43;27.57;;;-0.90;89.30;;;;;;5066525;28;20543;-59
2023/03/03 04:44:28;;;;;;;71.57;24.37;;;;;;;;;;5073766;28;20507;-58
2023/03/03 04:46:54;;;;;;;105.43;34.57;;;-0.80;88.90;;;;;;5073625;28;20515;-59
2023/03/03 04:49:21;;;;;;;87.13;25.80;;;-0.80;88.90;;;;;;5067150;28;20475;-59
2023/03/03 04:51:48;;;;;;;88.67;28.70;;;1.80;90.50;;;;;;5072560;28;20519;-58
2023/03/03 04:54:14;;;;;;;80.60;27.20;;;-0.80;88.90;;;;;;5056904;28;20481;-59
2023/03/03 04:56:41;;;;;;;82.30;27.97;;;-0.80;89.10;;;;;;5076432;28;20756;-58
2023/03/03 04:59:08;;;;;;;73.80;23.90;;;-0.80;89.10;;;;;;5077905;27;20552;-59
2023/03/03 05:01:36;;;;;;;79.77;26.10;;;-0.80;88.60;;;;;;5074245;28;20474;-59
2023/03/03 05:04:03;;;;;;;77.07;27.30;;;-0.80;88.20;;;;;;5068887;28;20555;-59
2023/03/03 05:06:30;;;;;;;76.67;25.70;;;-0.80;87.90;;;;;;5068483;28;21058;-59
2023/03/03 05:08:56;;;;;;;94.20;29.93;;;-0.80;87.90;;;;;;5071229;28;20471;-59
2023/03/03 05:11:23;;;;;;;91.80;27.03;;;-0.80;87.60;;;;;;5068737;28;20508;-59
2023/03/03 05:13:50;;;;;;;93.77;26.47;;;-0.90;88.00;;;;;;5068520;28;21013;-58
2023/03/03 05:16:16;;;;;;;80.10;25.73;;;-0.90;88.40;;;;;;5062852;27;20530;-60
2023/03/03 05:18:45;;;;;;;77.07;25.20;;;;;;;;;;5069400;28;20481;-60
2023/03/03 05:21:12;;;;;;;68.80;23.60;;;;;;;;;;5070635;28;20466;-59
2023/03/03 05:23:39;;;;;;;81.87;28.67;;;-0.90;89.00;;;;;;5067098;28;20925;-60
2023/03/03 05:26:05;;;;;;;58.67;24.77;;;-0.80;88.60;;;;;;5065385;28;20809;-59
2023/03/03 05:28:32;;;;;;;82.70;25.50;;;-0.90;88.40;;;;;;5052396;28;20579;-58
2023/03/03 05:30:59;;;;;;;94.47;30.37;;;-0.90;87.80;;;;;;5070072;28;20467;-59
2023/03/03 05:33:26;;;;;;;84.67;28.57;;;-0.90;87.70;;;;;;5064643;28;20547;-60
2023/03/03 05:35:56;;;;;;;102.37;28.37;;;-0.90;87.50;;;;;;5066923;28;20482;-58
2023/03/03 05:38:23;;;;;;;76.80;26.17;;;-1.00;87.10;;;;;;5060976;28;20497;-61
2023/03/03 05:40:49;;;;;;;89.80;31.77;;;-1.10;87.20;;;;;;5059070;28;21061;-60
2023/03/03 05:43:16;;;;;;;85.00;24.20;;;;;;;;;;5085894;28;20474;-60
2023/03/03 05:45:44;;;;;;;87.63;29.93;;;;;;;;;;5070794;28;20947;-60
2023/03/03 05:48:10;;;;;;;92.70;27.37;;;-1.10;89.10;;;;;;5060542;28;20485;-60
2023/03/03 05:50:38;;;;;;;88.20;28.43;;;-1.10;88.60;;;;;;5067019;28;20485;-59
2023/03/03 05:53:06;;;;;;;97.90;27.80;;;-1.00;88.10;;;;;;5059648;28;20812;-59
2023/03/03 05:55:33;;;;;;;87.00;26.93;;;-1.00;87.70;;;;;;5062428;28;21664;-58
2023/03/03 05:58:00;;;;;;;93.47;28.40;;;-1.00;87.50;;;;;;5056674;28;20910;-58
2023/03/03 06:00:26;;;;;;;87.60;29.37;;;-1.10;87.30;;;;;;5068794;28;20478;-59
2023/03/03 06:02:53;;;;;;;107.33;31.30;;;-1.00;87.30;;;;;;5050652;28;21120;-60
2023/03/03 06:05:20;;;;;;;73.10;26.33;;;-1.00;87.10;;;;;;5059458;28;20902;-60
2023/03/03 06:07:46;;;;;;;93.10;26.03;;;-1.00;86.90;;;;;;5069750;28;20536;-60
2023/03/03 06:10:14;;;;;;;90.73;27.33;;;-1.00;87.00;;;;;;5055300;28;20731;-60
2023/03/03 06:12:41;;;;;;;76.50;23.23;;;-1.20;87.20;;;;;;5074360;28;20516;-60
2023/03/03 06:15:09;;;;;;;79.10;24.43;;;-1.20;87.60;;;;;;5051927;28;20486;-59
2023/03/03 06:17:36;;;;;;;82.03;27.60;;;-1.20;87.40;;;;;;5063281;28;20483;-59
2023/03/03 06:20:03;;;;;;;85.90;27.77;;;-1.30;87.50;;;;;;5048319;28;20494;-59
2023/03/03 06:22:30;;;;;;;75.43;26.07;;;;;;;;;;5036620;28;20513;-59
2023/03/03 06:24:57;;;;;;;111.43;31.73;;;;;;;;;;5046840;28;20482;-60
2023/03/03 06:27:25;;;;;;;86.23;27.03;;;-1.30;88.70;;;;;;5049199;28;20483;-59
2023/03/03 06:29:52;;;;;;;119.73;34.20;;;-1.30;88.90;;;;;;5037032;28;20478;-59
2023/03/03 06:32:18;;;;;;;102.67;28.53;;;-1.20;88.90;;;;;;5068777;28;20481;-60
2023/03/03 06:34:45;;;;;;;83.00;27.57;;;-1.10;88.70;;;;;;5046189;28;21029;-59
2023/03/03 06:37:12;;;;;;;71.33;24.30;;;;;;;;;;5076489;28;20483;-58
2023/03/03 06:39:39;;;;;;;73.47;27.90;;;-1.00;88.80;;;;;;5069038;28;20473;-59
2023/03/03 06:42:08;;;;;;;89.27;26.93;;;-0.90;88.70;;;;;;5064383;28;20605;-58
2023/03/03 06:44:36;;;;;;;98.10;30.30;;;-0.80;88.70;;;;;;5084595;28;20573;-59
2023/03/03 06:47:03;;;;;;;86.60;29.33;;;-0.80;88.40;;;;;;5064089;28;20479;-59
2023/03/03 06:49:29;;;;;;;85.33;27.00;;;-0.80;87.90;;;;;;5062349;28;20471;-58
2023/03/03 06:51:58;;;;;;;104.23;34.97;;;-1.00;87.80;;;;;;5060531;28;20466;-60
2023/03/03 06:54:28;;;;;;;76.87;27.40;;;-1.10;88.10;;;;;;5066094;28;20878;-58
2023/03/03 06:56:59;;;;;;;104.53;34.40;;;-1.30;88.50;;;;;;5072453;28;20561;-59
2023/03/03 06:59:27;;;;;;;80.97;29.47;;;;;;;;;;5059654;28;20935;-59
2023/03/03 07:01:55;;;;;;;87.23;31.07;;;-1.30;89.90;;;;;;5073563;27;20625;-59
2023/03/03 07:04:29;;;;;;;85.03;26.20;;;-1.20;90.20;;;;;;5045087;28;20870;-58
2023/03/03 07:06:58;;;;;;;104.00;33.53;;;-1.20;90.00;;;;;;5048286;28;20556;-59
2023/03/03 07:09:26;;;;;;;93.70;29.10;;;-1.20;90.30;;;;;;5067513;28;21006;-59
2023/03/03 07:11:56;;;;;;;93.63;30.63;;;-1.20;90.70;;;;;;5056159;28;20496;-59
2023/03/03 07:14:22;;;;;;;82.63;27.57;;;-1.10;91.00;;;;;;5078723;28;20483;-59
2023/03/03 07:16:53;;;;;;;83.23;24.67;;;;;;;;;;5073349;28;20482;-58
2023/03/03 07:19:27;;;;;;;85.90;26.90;;;;;;;;;;5064135;28;20488;-59
2023/03/03 07:21:54;;;;;;;112.40;36.67;;;0.80;90.60;;;;;;5062661;28;20490;-58
2023/03/03 07:24:27;;;;;;;92.70;34.50;;;1.70;90.50;;;;;;5052133;27;20505;-60
2023/03/03 07:26:55;;;;;;;107.10;39.53;;;;;;;;;;5046703;28;20484;-59
2023/03/03 07:29:25;;;;;;;94.83;34.10;;;3.40;88.90;;;;;;5070620;28;20535;-59
2023/03/03 07:31:54;;;;;;;114.83;40.57;;;4.30;86.60;;;;;;5066169;28;20539;-58
2023/03/03 07:34:24;;;;;;;88.03;34.90;;;4.90;84.10;;;;;;5061429;27;20566;-58
2023/03/03 07:36:54;;;;;;;109.60;40.93;;;5.60;83.80;;;;;;5082928;28;20717;-60
2023/03/03 07:39:30;;;;;;;87.67;34.17;;;8.60;87.30;;;;;;5051869;28;20486;-58
2023/03/03 07:42:11;;;;;;;95.57;35.00;;;7.20;82.80;;;;;;5076402;28;20477;-60
2023/03/03 07:44:38;;;;;;;83.93;34.23;;;8.10;82.90;;;;;;5049978;28;20847;-59
2023/03/03 07:47:14;;;;;;;70.77;30.43;;;;;;;;;;5084809;28;20875;-59
2023/03/03 07:49:43;;;;;;;77.40;31.27;;;9.70;79.20;;;;;;5048923;28;20981;-59
2023/03/03 07:52:25;;;;;;;70.17;30.40;;;10.40;77.10;;;;;;5061561;28;20507;-61
2023/03/03 07:54:56;;;;;;;80.67;36.80;;;11.00;75.50;;;;;;5065965;28;20488;-61
2023/03/03 07:57:26;;;;;;;65.93;31.50;;;11.60;74.80;;;;;;5076723;28;20474;-62
2023/03/03 07:59:59;;;;;;;82.43;35.03;;;12.00;73.80;;;;;;5059321;28;20527;-61
2023/03/03 08:02:38;;;;;;;66.30;32.23;;;12.60;73.10;;;;;;5066314;28;20566;-60
2023/03/03 08:05:25;;;;;;;74.03;31.87;;;13.10;72.20;;;;;;5048512;28;20473;-61
2023/03/03 08:07:51;;;;;;;81.33;36.57;;;13.50;72.10;;;;;;5062209;28;20849;-60
2023/03/03 08:10:34;;;;;;;67.60;29.70;;;13.90;72.20;;;;;;5082469;28;20452;-60
2023/03/03 08:13:03;;;;;;;65.27;31.80;;;;;;;;;;5058608;28;20470;-60
2023/03/03 08:15:36;;;;;;;65.70;27.07;;;14.30;70.60;;;;;;5073914;28;20520;-61
2023/03/03 08:18:16;;;;;;;59.57;29.33;;;14.40;70.90;;;;;;5064571;28;20847;-61
2023/03/03 08:20:52;;;;;;;65.70;29.77;;;14.50;70.60;;;;;;5046397;28;20561;-60
2023/03/03 08:23:20;;;;;;;59.93;27.60;;;14.40;70.00;;;;;;5072893;28;20997;-61
2023/03/03 08:25:48;;;;;;;60.70;28.63;;;14.20;69.70;;;;;;5062327;28;20466;-61
2023/03/03 08:28:15;;;;;;;55.53;27.90;;;;;;;;;;5071963;28;20642;-61
2023/03/03 08:30:44;;;;;;;53.57;27.80;;;13.90;70.60;;;;;;5065206;28;20497;-61
2023/03/03 08:33:11;;;;;;;54.57;28.60;;;13.50;70.80;;;;;;5066720;28;20989;-61
2023/03/03 08:35:38;;;;;;;46.53;24.60;;;13.20;71.40;;;;;;5048947;28;20509;-61
2023/03/03 08:38:07;;;;;;;49.27;28.00;;;12.90;71.90;;;;;;5074460;28;20869;-60
2023/03/03 08:40:34;;;;;;;59.03;26.50;;;12.70;72.00;;;;;;5058066;28;20493;-61
2023/03/03 08:43:01;;;;;;;56.90;26.67;;;15.70;76.50;;;;;;5066477;28;20487;-61
2023/03/03 08:45:28;;;;;;;53.93;28.57;;;12.50;73.70;;;;;;5063608;28;20482;-61
2023/03/03 08:47:55;;;;;;;79.53;34.33;;;12.40;73.90;;;;;;5060290;28;20478;-62
2023/03/03 08:50:22;;;;;;;59.73;27.13;;;12.40;75.10;;;;;;5055760;28;20489;-61
2023/03/03 08:52:49;;;;;;;62.70;32.37;;;12.20;75.20;;;;;;5075649;28;21422;-62
2023/03/03 08:55:17;;;;;;;62.40;28.10;;;12.20;75.10;;;;;;5070834;27;20461;-61
2023/03/03 08:57:44;;;;;;;56.57;29.03;;;;;;;;;;5065971;28;20486;-61
2023/03/03 09:00:14;;;;;;;52.73;30.37;;;12.00;75.80;;;;;;5066513;28;20860;-61
2023/03/03 09:02:41;;;;;;;71.93;30.10;;;11.90;76.30;;;;;;5061453;28;20872;-61
2023/03/03 09:05:09;;;;;;;61.10;27.10;;;11.90;76.40;;;;;;5057813;27;20524;-61
2023/03/03 09:07:36;;;;;;;64.10;28.87;;;11.80;77.40;;;;;;5051223;28;20483;-61
2023/03/03 09:10:03;;;;;;;61.47;29.37;;;11.70;76.60;;;;;;5064065;28;20474;-61
2023/03/03 09:12:34;;;;;;;62.27;28.03;;;11.70;76.80;;;;;;5058624;28;20479;-61
2023/03/03 09:15:10;;;;;;;71.90;30.70;;;11.60;77.60;;;;;;5065290;28;20474;-61
2023/03/03 09:17:37;;;;;;;66.37;30.23;;;11.70;77.30;;;;;;5050365;28;20489;-61
2023/03/03 09:20:23;;;;;;;71.80;30.83;;;11.80;77.50;;;;;;5078641;28;20532;-61
2023/03/03 09:22:50;;;;;;;75.27;32.10;;;11.90;77.90;;;;;;5048266;27;20874;-61
2023/03/03 09:25:26;;;;;;;67.60;29.90;;;12.00;78.30;;;;;;5064546;28;20482;-60
2023/03/03 09:27:55;;;;;;;101.80;34.57;;;12.00;77.20;;;;;;5059088;28;20477;-61
2023/03/03 09:30:36;;;;;;;67.73;33.03;;;;;;;;;;5077500;28;20889;-61
2023/03/03 09:33:21;;;;;;;69.20;30.77;;;12.30;78.00;;;;;;5067095;28;20532;-61
2023/03/03 09:35:51;;;;;;;70.63;33.30;;;12.40;77.20;;;;;;5049491;28;20746;-61
2023/03/03 09:38:27;;;;;;;59.40;28.80;;;12.50;77.50;;;;;;5054872;28;20478;-61
2023/03/03 09:41:10;;;;;;;74.93;35.13;;;12.40;77.60;;;;;;5040017;28;20512;-61
2023/03/03 09:43:54;;;;;;;67.27;27.37;;;12.40;77.30;;;;;;5068456;28;20556;-61
2023/03/03 09:46:33;;;;;;;63.33;28.43;;;12.40;76.00;;;;;;5060297;28;20535;-61
2023/03/03 09:49:08;;;;;;;58.67;28.87;;;;;;;;;;5069460;28;20473;-61
2023/03/03 09:51:51;;;;;;;50.87;26.13;;;12.40;75.10;;;;;;5064181;28;20531;-60
2023/03/03 09:54:31;;;;;;;56.17;25.57;;;12.10;75.00;;;;;;5061640;28;20821;-61
2023/03/03 09:57:04;;;;;;;77.40;34.87;;;12.00;76.20;;;;;;5065572;28;20915;-61
2023/03/03 09:59:47;;;;;;;59.00;27.00;;;13.70;80.20;;;;;;5062953;28;20478;-61
2023/03/03 10:02:25;;;;;;;59.90;27.40;;;;;;;;;;5047662;28;20470;-60
2023/03/03 10:05:08;;;;;;;66.10;32.70;;;12.10;76.20;;;;;;5059829;28;20482;-61
2023/03/03 10:07:43;;;;;;;61.10;26.13;;;11.90;75.00;;;;;;5056121;28;20887;-60
2023/03/03 10:10:31;;;;;;;55.90;25.60;;;11.80;75.40;;;;;;5060123;28;20478;-61
2023/03/03 10:13:07;;;;;;;70.57;30.67;;;11.70;76.50;;;;;;5063372;28;20467;-61
2023/03/03 10:15:49;;;;;;;49.83;24.00;;;11.50;76.50;;;;;;5045736;28;20477;-61
2023/03/03 10:18:23;;;;;;;65.87;26.63;;;;;;;;;;5060728;28;20477;-61
2023/03/03 10:21:00;;;;;;;58.23;26.97;;;11.30;77.50;;;;;;5054698;28;20491;-60
2023/03/03 10:23:53;;;;;;;58.67;27.83;;;11.30;79.50;;;;;;5078390;28;20481;-60
2023/03/03 10:26:37;;;;;;;72.03;28.83;;;11.50;79.40;;;;;;5060907;28;20561;-59
2023/03/03 10:29:10;;;;;;;62.57;26.60;;;;;;;;;;5046047;28;20473;-60
2023/03/03 10:31:55;;;;;;;61.00;26.17;;;11.70;76.60;;;;;;5062142;28;20899;-59
2023/03/03 10:34:50;;;;;;;57.90;26.17;;;11.90;78.10;;;;;;5056966;28;20517;-60
2023/03/03 10:37:24;;;;;;;67.77;27.47;;;12.10;78.20;;;;;;5050973;28;20867;-60
2023/03/03 10:40:13;;;;;;;74.03;31.17;;;12.30;77.20;;;;;;5054832;28;21100;-60
2023/03/03 10:43:09;;;;;;;55.30;28.23;;;12.40;76.50;;;;;;5060475;28;21043;-60
2023/03/03 10:46:04;;;;;;;55.87;28.43;;;12.60;75.70;;;;;;5064159;28;21358;-60
2023/03/03 10:48:51;;;;;;;55.20;27.63;;;12.60;75.30;;;;;;5045770;28;20576;-60
2023/03/03 10:51:26;;;;;;;60.57;25.97;;;12.70;76.70;;;;;;5067931;28;20563;-61
2023/03/03 10:54:02;;;;;;;75.47;32.80;;;13.00;77.40;;;;;;5052224;28;20575;-60
2023/03/03 10:56:39;;;;;;;53.80;27.57;;;13.30;77.10;;;;;;5065607;28;20486;-60
2023/03/03 10:59:31;;;;;;;51.93;26.93;;;13.40;76.00;;;;;;5054743;28;20488;-60
2023/03/03 11:02:01;;;;;;;62.43;31.13;;;13.10;74.20;;;;;;5072487;28;20498;-61
2023/03/03 11:05:10;;;;;;;69.93;24.13;;;12.90;74.20;;;;;;5051334;28;20478;-61
2023/03/03 11:07:42;;;;;;;77.03;25.60;;;12.70;74.00;;;;;;5056055;28;20969;-61
2023/03/03 11:10:22;;;;;;;59.87;26.03;;;12.50;74.30;;;;;;5074268;28;20490;-61
2023/03/03 11:13:00;;;;;;;78.07;33.13;;;12.50;76.20;;;;;;5043327;28;21060;-61
2023/03/03 11:15:44;;;;;;;69.33;29.40;;;12.40;75.80;;;;;;5064704;28;20482;-61
2023/03/03 11:18:19;;;;;;;54.83;27.07;;;12.60;76.60;;;;;;5044140;28;21013;-61
2023/03/03 11:20:55;;;;;;;66.97;29.10;;;12.60;75.10;;;;;;5063095;28;20486;-61
2023/03/03 11:23:27;;;;;;;79.03;30.30;;;;;;;;;;5054548;28;20938;-61
2023/03/03 11:26:06;;;;;;;66.03;29.10;;;12.80;76.50;;;;;;5073129;28;20485;-61
2023/03/03 11:28:42;;;;;;;61.07;30.03;;;;;;;;;;5043154;28;20482;-61
2023/03/03 11:31:20;;;;;;;55.57;25.30;;;13.00;75.00;;;;;;5064154;28;20504;-61
2023/03/03 11:33:57;;;;;;;68.50;31.27;;;13.10;75.60;;;;;;5070065;28;20489;-60
2023/03/03 11:36:30;;;;;;;58.07;27.13;;;13.30;75.10;;;;;;5068114;27;20477;-60
2023/03/03 11:38:59;;;;;;;64.77;31.67;;;13.30;75.60;;;;;;5071350;28;20505;-59
2023/03/03 11:41:36;;;;;;;67.97;24.00;;;13.20;73.40;;;;;;5074222;28;20481;-60
2023/03/03 11:44:07;;;;;;;63.30;29.80;;;;;;;;;;5050618;28;21018;-60
2023/03/03 11:46:40;;;;;;;59.27;25.57;;;13.60;74.60;;;;;;5071778;28;20955;-59
2023/03/03 11:49:14;;;;;;;56.27;22.43;;;13.70;73.20;;;;;;5061928;28;20466;-60
2023/03/03 11:51:51;;;;;;;55.73;26.70;;;14.00;75.10;;;;;;5057364;28;20474;-60
2023/03/03 11:54:22;;;;;;;50.90;26.20;;;14.20;74.20;;;;;;5061576;28;20466;-59
2023/03/03 11:56:49;;;;;;;61.57;26.17;;;13.60;71.50;;;;;;5062489;28;20490;-60
2023/03/03 11:59:35;;;;;;;57.13;26.67;;;13.40;73.60;;;;;;5062657;28;20484;-60
2023/03/03 12:02:04;;;;;;;51.17;27.57;;;;;;;;;;5061674;28;20499;-60
2023/03/03 12:04:36;;;;;;;53.63;26.00;;;13.20;72.70;;;;;;5069837;28;20473;-61
2023/03/03 12:07:19;;;;;;;60.87;27.10;;;13.40;73.80;;;;;;5058401;28;20482;-61
2023/03/03 12:09:55;;;;;;;60.03;27.77;;;13.50;74.50;;;;;;5051285;28;20489;-61
2023/03/03 12:12:23;;;;;;;56.47;26.93;;;;;;;;;;5073422;28;20490;-61
2023/03/03 12:15:04;;;;;;;63.10;30.93;;;13.70;73.90;;;;;;5053867;28;20534;-60
2023/03/03 12:17:46;;;;;;;61.63;27.50;;;13.80;74.50;;;;;;5075292;28;21096;-61
2023/03/03 12:20:17;;;;;;;73.93;29.00;;;14.00;72.80;;;;;;5053602;28;20533;-61
2023/03/03 12:22:58;;;;;;;62.63;30.97;;;14.30;75.40;;;;;;5061072;28;20477;-61
2023/03/03 12:25:34;;;;;;;65.47;28.13;;;14.50;72.50;;;;;;5056529;28;20478;-61
2023/03/03 12:28:05;;;;;;;71.10;30.00;;;14.70;72.50;;;;;;5045648;28;20481;-60
2023/03/03 12:30:57;;;;;;;57.43;25.43;;;14.90;72.90;;;;;;5062607;28;20498;-61
2023/03/03 12:33:37;;;;;;;76.80;32.83;;;14.90;71.00;;;;;;5061737;28;20498;-60
2023/03/03 12:36:09;;;;;;;66.03;29.30;;;;;;;;;;5059691;28;21087;-60
2023/03/03 12:38:45;;;;;;;66.73;28.20;;;15.20;70.30;;;;;;5047267;28;20561;-60
2023/03/03 12:41:16;;;;;;;61.70;28.30;;;;;;;;;;5055559;28;20535;-60
2023/03/03 12:43:52;;;;;;;74.33;30.60;;;15.10;73.20;;;;;;5039172;28;20477;-61
2023/03/03 12:46:25;;;;;;;70.83;28.30;;;15.20;72.40;;;;;;5061041;28;20738;-61
2023/03/03 12:48:52;;;;;;;66.53;33.23;;;15.30;70.90;;;;;;5053927;28;20523;-61
2023/03/03 12:51:26;;;;;;;49.23;27.27;;;;;;;;;;5069266;28;20490;-61
2023/03/03 12:54:37;;;;;;;66.13;33.70;;;15.40;70.70;;;;;;5039448;28;20876;-60
2023/03/03 12:57:13;;;;;;;57.13;26.70;;;15.10;70.30;;;;;;4990464;28;20500;-61
2023/03/03 12:59:51;;;;;;;63.47;28.17;;;15.20;71.90;;;;;;5041021;28;20544;-60
2023/03/03 13:02:35;;;;;;;64.50;27.47;;;15.30;73.00;;;;;;5054781;28;20481;-61
2023/03/03 13:05:11;;;;;;;56.40;28.50;;;15.30;71.90;;;;;;5051754;28;22056;-61
2023/03/03 13:07:44;;;;;;;64.60;29.77;;;15.50;71.50;;;;;;5070385;28;20478;-61